createdAt,value
2023-02-28T00:01:38.859Z,18.00
2023-02-28T00:04:06.636Z,22.93
2023-02-28T00:06:34.577Z,21.33
2023-02-28T00:09:03.695Z,22.37
2023-02-28T00:11:31.637Z,21.90
2023-02-28T00:14:00.511Z,20.03
2023-02-28T00:16:28.279Z,20.70
2023-02-28T00:18:56.009Z,21.67
2023-02-28T00:21:23.734Z,22.20
2023-02-28T00:23:51.677Z,20.73
2023-02-28T00:26:21.952Z,19.97
2023-02-28T00:28:50.409Z,22.67
2023-02-28T00:31:18.157Z,21.23
2023-02-28T00:33:45.954Z,21.83
2023-02-28T00:36:13.932Z,17.80
2023-02-28T00:38:42.310Z,20.20
2023-02-28T00:41:10.372Z,18.87
2023-02-28T00:43:41.115Z,28.07
2023-02-28T00:46:09.957Z,21.97
2023-02-28T00:48:38.638Z,20.23
2023-02-28T00:51:07.222Z,21.43
2023-02-28T00:53:35.009Z,17.80
2023-02-28T00:56:03.156Z,22.10
2023-02-28T00:58:31.377Z,20.50
2023-02-28T01:01:00.660Z,18.23
2023-02-28T01:03:28.533Z,19.80
2023-02-28T01:05:56.257Z,17.90
2023-02-28T01:08:24.192Z,18.97
2023-02-28T01:10:52.147Z,17.27
2023-02-28T01:13:20.436Z,18.50
2023-02-28T01:15:52.655Z,18.70
2023-02-28T01:18:22.838Z,17.67
2023-02-28T01:20:52.729Z,18.67
2023-02-28T01:23:20.733Z,20.97
2023-02-28T01:25:48.438Z,17.50
2023-02-28T01:28:16.167Z,18.87
2023-02-28T01:30:44.229Z,20.17
2023-02-28T01:33:11.957Z,19.17
2023-02-28T01:35:41.013Z,20.27
2023-02-28T01:38:21.259Z,19.30
2023-02-28T01:40:50.191Z,21.47
2023-02-28T01:43:24.047Z,18.40
2023-02-28T01:45:52.363Z,18.53
2023-02-28T01:48:23.092Z,17.17
2023-02-28T01:50:52.298Z,18.43
2023-02-28T01:53:23.660Z,17.37
2023-02-28T01:55:54.289Z,19.83
2023-02-28T01:58:22.671Z,14.60
2023-02-28T02:00:50.862Z,15.37
2023-02-28T02:03:21.910Z,18.53
2023-02-28T02:05:50.136Z,17.17
2023-02-28T02:08:21.883Z,18.10
2023-02-28T02:10:54.336Z,15.57
2023-02-28T02:13:39.520Z,16.77
2023-02-28T02:16:18.322Z,18.00
2023-02-28T02:18:50.141Z,14.40
2023-02-28T02:21:46.845Z,16.33
2023-02-28T02:24:48.474Z,13.63
2023-02-28T02:27:49.067Z,14.40
2023-02-28T02:30:53.664Z,16.77
2023-02-28T02:33:43.366Z,17.83
2023-02-28T02:36:19.940Z,17.90
2023-02-28T02:38:51.633Z,17.27
2023-02-28T02:41:24.766Z,17.83
2023-02-28T02:43:55.000Z,16.17
2023-02-28T02:46:27.126Z,15.00
2023-02-28T02:48:58.411Z,14.80
2023-02-28T02:51:29.317Z,13.90
2023-02-28T02:54:01.479Z,12.10
2023-02-28T02:56:33.699Z,15.77
2023-02-28T02:59:04.816Z,13.93
2023-02-28T03:01:34.229Z,13.53
2023-02-28T03:04:06.498Z,14.67
2023-02-28T03:06:36.170Z,12.40
2023-02-28T03:09:05.512Z,14.00
2023-02-28T03:11:34.364Z,11.47
2023-02-28T03:14:22.342Z,15.10
2023-02-28T03:17:19.505Z,15.70
2023-02-28T03:19:56.874Z,12.20
2023-02-28T03:22:54.263Z,14.30
2023-02-28T03:25:32.766Z,13.13
2023-02-28T03:28:07.172Z,14.67
2023-02-28T03:30:43.103Z,39.47
2023-02-28T03:33:15.393Z,12.20
2023-02-28T03:35:47.323Z,12.77
2023-02-28T03:38:21.581Z,13.53
2023-02-28T03:40:52.315Z,14.33
2023-02-28T03:43:25.429Z,10.17
2023-02-28T03:45:55.110Z,9.40
2023-02-28T03:48:26.869Z,11.40
2023-02-28T03:50:56.858Z,13.47
2023-02-28T03:53:32.100Z,11.90
2023-02-28T03:56:07.838Z,12.90
2023-02-28T03:58:43.096Z,11.93
2023-02-28T04:01:15.145Z,11.27
2023-02-28T04:03:43.102Z,11.63
2023-02-28T04:06:18.004Z,11.00
2023-02-28T04:08:47.531Z,10.13
2023-02-28T04:11:25.682Z,12.53
2023-02-28T04:13:53.423Z,10.87
2023-02-28T04:16:33.930Z,13.13
2023-02-28T04:19:04.082Z,12.13
2023-02-28T04:21:32.561Z,13.13
2023-02-28T04:24:01.885Z,11.37
2023-02-28T04:26:31.793Z,11.70
2023-02-28T04:28:59.702Z,13.57
2023-02-28T04:31:27.878Z,9.83
2023-02-28T04:33:55.950Z,13.10
2023-02-28T04:36:24.217Z,11.70
2023-02-28T04:38:52.345Z,11.93
2023-02-28T04:41:21.976Z,12.50
2023-02-28T04:43:49.764Z,12.20
2023-02-28T04:46:18.253Z,11.83
2023-02-28T04:48:46.297Z,10.20
2023-02-28T04:51:15.746Z,12.83
2023-02-28T04:53:44.331Z,11.30
2023-02-28T04:56:14.755Z,10.83
2023-02-28T04:58:43.869Z,13.53
2023-02-28T05:01:21.091Z,10.97
2023-02-28T05:03:49.572Z,12.15
2023-02-28T05:06:17.811Z,12.67
2023-02-28T05:08:45.945Z,12.87
2023-02-28T05:11:18.626Z,10.27
2023-02-28T05:13:48.151Z,9.70
2023-02-28T05:16:16.054Z,10.23
2023-02-28T05:18:45.183Z,8.90
2023-02-28T05:21:28.553Z,10.87
2023-02-28T05:23:57.425Z,9.93
2023-02-28T05:26:25.599Z,10.57
2023-02-28T05:28:54.895Z,12.33
2023-02-28T05:31:22.697Z,11.40
2023-02-28T05:33:50.497Z,10.40
2023-02-28T05:36:18.223Z,12.33
2023-02-28T05:38:48.630Z,10.93
2023-02-28T05:41:16.702Z,11.33
2023-02-28T05:43:44.498Z,11.57
2023-02-28T05:46:14.241Z,8.77
2023-02-28T05:48:45.180Z,11.10
2023-02-28T05:51:12.927Z,12.43
2023-02-28T05:53:40.696Z,10.60
2023-02-28T05:56:08.711Z,13.83
2023-02-28T05:58:36.583Z,15.73
2023-02-28T06:01:24.743Z,9.67
2023-02-28T06:03:52.925Z,9.73
2023-02-28T06:06:20.869Z,11.03
2023-02-28T06:08:49.142Z,10.90
2023-02-28T06:11:16.931Z,11.63
2023-02-28T06:13:44.682Z,11.93
2023-02-28T06:16:13.785Z,13.53
2023-02-28T06:18:43.039Z,11.30
2023-02-28T06:21:10.805Z,14.43
2023-02-28T06:23:38.668Z,16.90
2023-02-28T06:26:06.925Z,12.00
2023-02-28T06:28:34.970Z,11.80
2023-02-28T06:31:08.946Z,13.63
2023-02-28T06:33:37.122Z,11.30
2023-02-28T06:36:07.096Z,13.37
2023-02-28T06:38:35.560Z,18.43
2023-02-28T06:41:04.125Z,14.67
2023-02-28T06:43:34.051Z,14.27
2023-02-28T06:46:04.621Z,15.53
2023-02-28T06:48:33.868Z,14.03
2023-02-28T06:51:06.634Z,16.13
2023-02-28T06:53:34.447Z,13.87
2023-02-28T06:56:06.603Z,15.87
2023-02-28T06:58:34.430Z,18.03
2023-02-28T07:01:02.862Z,18.63
2023-02-28T07:03:32.751Z,18.53
2023-02-28T07:06:02.091Z,24.43
2023-02-28T07:08:32.608Z,25.40
2023-02-28T07:11:00.608Z,27.07
2023-02-28T07:13:28.614Z,23.00
2023-02-28T07:15:57.442Z,30.77
2023-02-28T07:18:25.595Z,20.63
2023-02-28T07:20:53.780Z,22.80
2023-02-28T07:23:21.648Z,21.23
2023-02-28T07:25:51.878Z,19.17
2023-02-28T07:28:19.709Z,18.20
2023-02-28T07:30:47.587Z,20.20
2023-02-28T07:33:15.413Z,17.80
2023-02-28T07:35:43.638Z,16.20
2023-02-28T07:38:11.538Z,15.03
2023-02-28T07:40:39.313Z,17.40
2023-02-28T07:43:08.400Z,14.27
2023-02-28T07:45:36.340Z,13.40
2023-02-28T07:48:11.128Z,9.87
2023-02-28T07:50:39.042Z,13.23
2023-02-28T07:53:06.800Z,12.37
2023-02-28T07:55:34.574Z,8.87
2023-02-28T07:58:02.555Z,12.27
2023-02-28T08:00:33.165Z,15.37
2023-02-28T08:03:01.233Z,8.33
2023-02-28T08:05:29.228Z,8.40
2023-02-28T08:07:57.257Z,6.93
2023-02-28T08:10:25.778Z,7.50
2023-02-28T08:12:53.487Z,10.83
2023-02-28T08:15:21.221Z,9.17
2023-02-28T08:17:50.299Z,9.03
2023-02-28T08:20:18.054Z,7.00
2023-02-28T08:22:46.105Z,6.17
2023-02-28T08:25:13.945Z,8.37
2023-02-28T08:27:41.737Z,8.90
2023-02-28T08:30:12.488Z,9.30
2023-02-28T08:32:40.632Z,7.70
2023-02-28T08:35:11.395Z,21.17
2023-02-28T08:37:39.220Z,7.20
2023-02-28T08:40:08.401Z,11.60
2023-02-28T08:42:36.493Z,7.43
2023-02-28T08:45:04.674Z,15.10
2023-02-28T08:47:32.431Z,7.73
2023-02-28T08:50:00.216Z,14.13
2023-02-28T08:52:29.312Z,10.10
2023-02-28T08:54:57.080Z,8.60
2023-02-28T08:57:27.178Z,14.20
2023-02-28T08:59:55.053Z,6.90
2023-02-28T09:02:22.798Z,7.30
2023-02-28T09:04:50.571Z,7.80
2023-02-28T09:07:18.861Z,10.63
2023-02-28T09:09:55.612Z,6.07
2023-02-28T09:12:23.654Z,6.32
2023-02-28T09:14:51.883Z,7.97
2023-02-28T09:17:20.184Z,8.50
2023-02-28T09:19:50.285Z,5.90
2023-02-28T09:22:18.662Z,5.53
2023-02-28T09:24:47.748Z,4.30
2023-02-28T09:27:15.572Z,6.20
2023-02-28T09:29:43.334Z,3.00
2023-02-28T09:32:11.159Z,5.00
2023-02-28T09:34:39.579Z,3.95
2023-02-28T09:37:07.364Z,3.55
2023-02-28T09:39:35.250Z,6.50
2023-02-28T09:42:05.390Z,4.28
2023-02-28T09:44:38.762Z,2.38
2023-02-28T09:47:14.917Z,2.23
2023-02-28T09:49:47.309Z,2.97
2023-02-28T09:52:20.502Z,4.40
2023-02-28T09:54:49.038Z,4.70
2023-02-28T09:57:30.055Z,5.70
2023-02-28T10:00:10.785Z,2.83
2023-02-28T10:02:50.416Z,4.70
2023-02-28T10:05:20.195Z,6.95
2023-02-28T10:08:00.139Z,4.63
2023-02-28T10:10:34.069Z,3.27
2023-02-28T10:13:07.251Z,5.87
2023-02-28T10:15:37.387Z,2.00
2023-02-28T10:18:09.809Z,4.40
2023-02-28T10:20:41.060Z,3.20
2023-02-28T10:23:18.587Z,4.53
2023-02-28T10:25:55.254Z,4.17
2023-02-28T10:28:26.511Z,3.23
2023-02-28T10:30:55.918Z,2.97
2023-02-28T10:33:30.016Z,4.67
2023-02-28T10:35:58.066Z,3.20
2023-02-28T10:38:28.479Z,4.33
2023-02-28T10:41:07.636Z,4.30
2023-02-28T10:43:37.696Z,1.90
2023-02-28T10:46:12.130Z,4.03
2023-02-28T10:48:43.631Z,6.87
2023-02-28T10:51:13.529Z,3.40
2023-02-28T10:54:00.438Z,3.63
2023-02-28T10:56:30.334Z,3.03
2023-02-28T10:59:02.126Z,4.37
2023-02-28T11:01:40.999Z,9.23
2023-02-28T11:04:22.507Z,4.57
2023-02-28T11:06:58.618Z,3.87
2023-02-28T11:09:31.069Z,3.40
2023-02-28T11:11:59.276Z,3.50
2023-02-28T11:14:31.618Z,7.17
2023-02-28T11:17:13.341Z,3.17
2023-02-28T11:19:47.048Z,3.93
2023-02-28T11:22:20.507Z,7.93
2023-02-28T11:24:52.303Z,4.60
2023-02-28T11:27:41.595Z,2.87
2023-02-28T11:30:26.298Z,3.17
2023-02-28T11:32:54.127Z,4.03
2023-02-28T11:35:27.945Z,4.20
2023-02-28T11:37:55.791Z,8.13
2023-02-28T11:40:31.452Z,3.73
2023-02-28T11:43:18.291Z,4.97
2023-02-28T11:45:57.764Z,4.53
2023-02-28T11:48:31.712Z,5.30
2023-02-28T11:51:12.506Z,3.93
2023-02-28T11:53:58.014Z,5.13
2023-02-28T11:56:32.563Z,5.50
2023-02-28T11:59:16.352Z,3.67
2023-02-28T12:02:05.698Z,7.97
2023-02-28T12:04:48.513Z,3.80
2023-02-28T12:07:23.255Z,4.87
2023-02-28T12:10:02.235Z,3.70
2023-02-28T12:12:42.868Z,9.53
2023-02-28T12:15:34.451Z,4.50
2023-02-28T12:18:16.253Z,3.30
2023-02-28T12:20:51.661Z,5.80
2023-02-28T12:23:38.144Z,8.93
2023-02-28T12:26:14.540Z,3.53
2023-02-28T12:28:47.434Z,6.77
2023-02-28T12:31:23.028Z,3.70
2023-02-28T12:33:56.022Z,6.63
2023-02-28T12:36:25.035Z,3.20
2023-02-28T12:38:57.649Z,3.63
2023-02-28T12:41:33.271Z,4.30
2023-02-28T12:44:05.757Z,3.67
2023-02-28T12:46:39.222Z,3.13
2023-02-28T12:49:12.697Z,8.87
2023-02-28T12:51:41.327Z,4.20
2023-02-28T12:54:19.390Z,5.17
2023-02-28T12:56:55.388Z,2.93
2023-02-28T12:59:28.759Z,3.10
2023-02-28T13:02:19.358Z,3.53
2023-02-28T13:05:03.726Z,4.30
2023-02-28T13:08:10.936Z,3.27
2023-02-28T13:10:44.728Z,4.93
2023-02-28T13:13:17.925Z,5.63
2023-02-28T13:16:00.814Z,4.47
2023-02-28T13:18:34.582Z,6.93
2023-02-28T13:21:03.948Z,3.63
2023-02-28T13:23:59.037Z,4.20
2023-02-28T13:27:00.421Z,4.60
2023-02-28T13:29:34.561Z,5.03
2023-02-28T13:32:38.604Z,6.73
2023-02-28T13:35:36.252Z,4.13
2023-02-28T13:38:34.568Z,3.60
2023-02-28T13:41:35.596Z,6.33
2023-02-28T13:44:05.670Z,4.03
2023-02-28T13:46:35.554Z,4.77
2023-02-28T13:49:26.774Z,4.43
2023-02-28T13:51:57.218Z,4.77
2023-02-28T13:54:42.695Z,4.13
2023-02-28T13:57:24.309Z,3.80
2023-02-28T14:00:05.454Z,5.30
2023-02-28T14:02:45.992Z,5.33
2023-02-28T14:05:17.442Z,5.57
2023-02-28T14:07:49.408Z,5.20
2023-02-28T14:10:28.719Z,4.23
2023-02-28T14:12:58.799Z,7.97
2023-02-28T14:15:47.004Z,5.73
2023-02-28T14:18:28.320Z,4.23
2023-02-28T14:21:01.964Z,5.03
2023-02-28T14:24:05.430Z,4.53
2023-02-28T14:26:51.966Z,6.60
2023-02-28T14:29:37.733Z,5.70
2023-02-28T14:32:13.945Z,4.63
2023-02-28T14:34:50.760Z,4.20
2023-02-28T14:37:25.195Z,3.63
2023-02-28T14:39:53.286Z,4.27
2023-02-28T14:42:31.420Z,4.50
2023-02-28T14:44:59.869Z,4.97
2023-02-28T14:47:30.931Z,4.93
2023-02-28T14:50:00.153Z,4.80
2023-02-28T14:52:30.682Z,5.87
2023-02-28T14:55:00.174Z,8.20
2023-02-28T14:57:31.709Z,4.47
2023-02-28T15:00:11.468Z,4.80
2023-02-28T15:02:41.416Z,3.83
2023-02-28T15:05:24.416Z,3.93
2023-02-28T15:08:03.958Z,5.67
2023-02-28T15:10:32.470Z,4.83
2023-02-28T15:13:03.871Z,4.03
2023-02-28T15:15:51.693Z,4.87
2023-02-28T15:18:35.482Z,3.57
2023-02-28T15:21:07.352Z,4.10
2023-02-28T15:23:38.215Z,3.63
2023-02-28T15:26:07.200Z,3.97
2023-02-28T15:28:36.463Z,3.80
2023-02-28T15:31:20.336Z,6.40
2023-02-28T15:33:55.562Z,4.73
2023-02-28T15:36:28.754Z,4.17
2023-02-28T15:39:01.532Z,3.37
2023-02-28T15:41:39.871Z,4.03
2023-02-28T15:44:27.919Z,2.97
2023-02-28T15:47:00.635Z,3.50
2023-02-28T15:49:30.834Z,3.77
2023-02-28T15:52:01.702Z,3.70
2023-02-28T15:54:32.552Z,3.93
2023-02-28T15:57:07.273Z,6.83
2023-02-28T15:59:38.731Z,3.83
2023-02-28T16:02:20.676Z,4.17
2023-02-28T16:05:03.328Z,4.67
2023-02-28T16:07:31.387Z,3.70
2023-02-28T16:09:59.197Z,8.80
2023-02-28T16:12:31.219Z,6.53
2023-02-28T16:15:03.799Z,6.43
2023-02-28T16:17:34.840Z,8.50
2023-02-28T16:20:04.987Z,8.37
2023-02-28T16:22:32.849Z,5.53
2023-02-28T16:25:00.612Z,4.87
2023-02-28T16:27:33.278Z,5.50
2023-02-28T16:30:02.828Z,6.17
2023-02-28T16:32:31.345Z,4.57
2023-02-28T16:34:59.017Z,3.87
2023-02-28T16:37:28.571Z,15.73
2023-02-28T16:39:56.633Z,7.30
2023-02-28T16:42:27.011Z,13.47
2023-02-28T16:44:55.507Z,6.50
2023-02-28T16:47:24.695Z,9.57
2023-02-28T16:49:52.459Z,7.50
2023-02-28T16:52:20.326Z,20.90
2023-02-28T16:54:48.805Z,12.13
2023-02-28T16:57:22.183Z,6.17
2023-02-28T16:59:51.668Z,7.10
2023-02-28T17:02:21.676Z,6.53
2023-02-28T17:04:50.951Z,8.57
2023-02-28T17:07:18.912Z,8.30
2023-02-28T17:09:47.153Z,11.27
2023-02-28T17:12:15.548Z,10.70
2023-02-28T17:14:43.448Z,10.37
2023-02-28T17:17:17.973Z,9.03
2023-02-28T17:19:45.800Z,7.23
2023-02-28T17:22:15.924Z,7.47
2023-02-28T17:24:43.697Z,10.23
2023-02-28T17:27:14.385Z,9.13
2023-02-28T17:29:42.721Z,8.10
2023-02-28T17:32:17.979Z,8.73
2023-02-28T17:34:46.868Z,6.70
2023-02-28T17:37:16.277Z,8.83
2023-02-28T17:39:44.125Z,8.20
2023-02-28T17:42:11.962Z,8.47
2023-02-28T17:44:39.746Z,9.67
2023-02-28T17:47:07.678Z,13.47
2023-02-28T17:49:35.591Z,10.80
2023-02-28T17:52:03.328Z,9.27
2023-02-28T17:54:32.381Z,9.80
2023-02-28T17:57:00.217Z,12.73
2023-02-28T17:59:34.113Z,11.67
2023-02-28T18:02:02.133Z,9.07
2023-02-28T18:04:29.985Z,7.87
2023-02-28T18:07:00.959Z,7.77
2023-02-28T18:09:29.238Z,13.20
2023-02-28T18:11:58.586Z,12.90
2023-02-28T18:14:27.252Z,9.93
2023-02-28T18:16:57.516Z,13.60
2023-02-28T18:19:25.456Z,8.87
2023-02-28T18:21:55.141Z,12.40
2023-02-28T18:24:24.671Z,10.63
2023-02-28T18:26:52.634Z,9.20
2023-02-28T18:29:23.742Z,16.87
2023-02-28T18:31:51.596Z,15.63
2023-02-28T18:34:20.057Z,14.77
2023-02-28T18:36:48.453Z,8.10
2023-02-28T18:39:16.953Z,12.57
2023-02-28T18:41:44.950Z,14.60
2023-02-28T18:44:19.755Z,12.20
2023-02-28T18:46:50.309Z,9.07
2023-02-28T18:49:18.667Z,8.83
2023-02-28T18:51:46.796Z,10.13
2023-02-28T18:54:15.419Z,10.63
2023-02-28T18:56:43.529Z,12.50
2023-02-28T18:59:12.076Z,7.93
2023-02-28T19:01:40.931Z,10.20
2023-02-28T19:04:14.039Z,10.87
2023-02-28T19:06:42.050Z,9.40
2023-02-28T19:09:10.412Z,9.57
2023-02-28T19:11:38.586Z,10.20
2023-02-28T19:14:06.386Z,11.00
2023-02-28T19:16:34.519Z,12.47
2023-02-28T19:19:02.403Z,13.23
2023-02-28T19:21:31.533Z,9.97
2023-02-28T19:23:59.313Z,14.10
2023-02-28T19:26:28.190Z,9.83
2023-02-28T19:28:56.431Z,12.37
2023-02-28T19:31:26.610Z,13.97
2023-02-28T19:33:56.766Z,12.40
2023-02-28T19:36:25.982Z,11.13
2023-02-28T19:38:55.340Z,10.77
2023-02-28T19:41:23.190Z,12.27
2023-02-28T19:43:51.568Z,13.63
2023-02-28T19:46:20.375Z,12.83
2023-02-28T19:48:48.812Z,14.50
2023-02-28T19:53:50.386Z,13.13
2023-02-28T19:56:19.514Z,14.13
2023-02-28T19:58:47.342Z,14.20
2023-02-28T20:01:16.939Z,14.77
2023-02-28T20:03:49.352Z,13.07
2023-02-28T20:06:17.600Z,11.60
2023-02-28T20:08:45.635Z,12.57
2023-02-28T20:11:16.118Z,15.47
2023-02-28T20:13:45.905Z,13.33
2023-02-28T20:16:15.206Z,15.20
2023-02-28T20:18:44.275Z,14.10
2023-02-28T20:21:13.258Z,11.30
2023-02-28T20:23:43.352Z,11.10
2023-02-28T20:26:12.012Z,13.13
2023-02-28T20:28:40.729Z,15.17
2023-02-28T20:31:13.959Z,15.67
2023-02-28T20:33:42.233Z,16.50
2023-02-28T20:36:10.232Z,18.17
2023-02-28T20:38:38.223Z,18.00
2023-02-28T20:41:07.021Z,15.87
2023-02-28T20:43:34.884Z,13.80
2023-02-28T20:46:03.209Z,19.13
2023-02-28T20:48:33.699Z,17.67
2023-02-28T20:51:04.183Z,20.73
2023-02-28T20:53:33.186Z,17.67
2023-02-28T20:56:02.696Z,18.50
2023-02-28T20:58:32.458Z,23.70
2023-02-28T21:01:01.788Z,20.17
2023-02-28T21:03:29.598Z,18.27
2023-02-28T21:06:05.275Z,19.10
2023-02-28T21:08:35.353Z,24.13
2023-02-28T21:11:03.206Z,17.83
2023-02-28T21:13:30.927Z,18.10
2023-02-28T21:15:58.816Z,17.97
2023-02-28T21:18:26.592Z,23.07
2023-02-28T21:20:54.312Z,22.40
2023-02-28T21:23:23.426Z,27.37
2023-02-28T21:25:51.230Z,33.30
2023-02-28T21:28:18.966Z,29.93
2023-02-28T21:30:46.683Z,30.87
2023-02-28T21:33:14.383Z,29.13
2023-02-28T21:35:42.144Z,33.90
2023-02-28T21:38:09.866Z,31.23
2023-02-28T21:40:38.915Z,29.13
2023-02-28T21:43:06.614Z,27.00
2023-02-28T21:45:35.519Z,27.73
2023-02-28T21:48:03.271Z,24.27
2023-02-28T21:50:30.976Z,25.70
2023-02-28T21:52:58.670Z,24.77
2023-02-28T21:55:26.350Z,26.57
2023-02-28T21:57:55.404Z,22.10
2023-02-28T22:00:23.468Z,24.30
2023-02-28T22:02:51.236Z,26.97
2023-02-28T22:05:18.987Z,27.47
2023-02-28T22:07:46.724Z,25.37
2023-02-28T22:10:14.425Z,25.07
2023-02-28T22:12:42.126Z,27.43
2023-02-28T22:15:12.657Z,29.27
2023-02-28T22:17:40.491Z,30.30
2023-02-28T22:20:08.875Z,30.77
2023-02-28T22:22:36.729Z,34.43
2023-02-28T22:25:04.828Z,32.90
2023-02-28T22:27:32.529Z,30.87
2023-02-28T22:30:00.228Z,31.73
2023-02-28T22:32:29.345Z,31.90
2023-02-28T22:34:57.346Z,31.97
2023-02-28T22:37:25.066Z,28.87
2023-02-28T22:39:52.763Z,34.37
2023-02-28T22:42:20.448Z,30.57
2023-02-28T22:44:50.698Z,28.90
2023-02-28T22:47:18.491Z,28.73
2023-02-28T22:49:47.621Z,32.47
2023-02-28T22:52:15.336Z,35.90
2023-02-28T22:54:43.070Z,36.47
2023-02-28T22:57:11.797Z,37.57
2023-02-28T22:59:39.602Z,35.87
2023-02-28T23:02:07.300Z,35.57
2023-02-28T23:04:35.056Z,40.00
2023-02-28T23:07:04.638Z,44.80
2023-02-28T23:09:32.368Z,47.00
2023-02-28T23:12:00.086Z,45.60
2023-02-28T23:14:27.812Z,46.10
2023-02-28T23:16:55.977Z,43.10
2023-02-28T23:19:26.453Z,42.53
2023-02-28T23:21:54.667Z,41.87
2023-02-28T23:24:25.377Z,48.63
2023-02-28T23:26:56.272Z,43.43
2023-02-28T23:29:25.031Z,40.57
2023-02-28T23:31:53.104Z,40.33
2023-02-28T23:34:26.216Z,39.30
2023-02-28T23:36:55.091Z,38.07
2023-02-28T23:39:25.084Z,35.57
2023-02-28T23:41:53.018Z,35.13
2023-02-28T23:44:20.779Z,37.87
2023-02-28T23:46:50.684Z,39.33
2023-02-28T23:49:20.226Z,37.80
2023-02-28T23:51:49.317Z,36.87
2023-02-28T23:54:17.817Z,37.13
2023-02-28T23:56:46.882Z,36.27
2023-02-28T23:59:14.877Z,36.77
